Terminal Aerodrome Forecast
Issued by NWS

Current Version | Previous Version | Text Only | Print | Product List | Glossary On
Versions: 1 2 3 4 5 6 7 8 9 10 11 12 13 14 15 16
000 FTUS41 KBTV 210534 TAFMPV TAF KMPV 210534Z 2106/2206 00000KT 6SM BR SCT015 TEMPO 2106/2108 5SM BR BKN015 FM210800 00000KT 5SM BR OVC015 FM211400 VRB02KT P6SM BKN015 OVC025 FM220000 00000KT 5SM BR OVC010=

USA.gov is the U.S. government's official web portal to all federal, state and local government web resources and services.